Time;durP1;ratioP1;P1;durP2;ratioP2;P2;SDS_P1;SDS_P2;PMS_P1;PMS_P2;Temp;Humidity;BMP_temperature;BMP_pressure;BME280_temperature;BME280_humidity;BME280_pressure;Samples;Min_cycle;Max_cycle;Signal;HPM_P1;HPM_P2
2023/06/20 00:01:43;;;;;;;3.67;2.85;;;25.40;44.20;;;;;;5002163;28;20054;-55
2023/06/20 00:04:11;;;;;;;4.00;2.60;;;25.40;44.30;;;;;;4998234;28;20064;-56
2023/06/20 00:06:39;;;;;;;3.97;2.75;;;25.40;44.30;;;;;;4999968;28;20062;-56
2023/06/20 00:09:06;;;;;;;3.70;2.88;;;25.40;44.20;;;;;;5001931;28;20494;-56
2023/06/20 00:11:33;;;;;;;3.97;2.83;;;25.40;44.20;;;;;;5003572;28;20050;-54
2023/06/20 00:14:00;;;;;;;4.82;3.05;;;25.40;44.30;;;;;;5003906;28;20053;-56
2023/06/20 00:16:27;;;;;;;3.80;2.90;;;25.40;44.40;;;;;;5001069;28;20046;-55
2023/06/20 00:18:55;;;;;;;4.05;2.90;;;25.40;44.50;;;;;;4999721;28;20057;-53
2023/06/20 00:21:25;;;;;;;4.07;2.90;;;25.40;44.70;;;;;;4999802;28;20073;-54
2023/06/20 00:23:53;;;;;;;4.95;3.20;;;25.30;44.80;;;;;;5000740;28;20069;-54
2023/06/20 00:26:21;;;;;;;3.08;2.60;;;25.30;45.00;;;;;;5001521;28;20520;-54
2023/06/20 00:28:48;;;;;;;4.00;3.10;;;25.30;45.20;;;;;;5000737;28;20053;-54
2023/06/20 00:31:15;;;;;;;3.75;2.85;;;25.30;45.50;;;;;;5001451;28;20426;-53
2023/06/20 00:33:42;;;;;;;3.03;2.72;;;25.30;45.60;;;;;;4999214;28;20046;-53
2023/06/20 00:36:10;;;;;;;4.03;2.85;;;25.30;45.80;;;;;;4998755;28;20053;-53
2023/06/20 00:38:38;;;;;;;4.88;3.10;;;25.30;45.90;;;;;;5000642;28;20417;-54
2023/06/20 00:41:05;;;;;;;5.13;3.58;;;25.20;46.00;;;;;;5001579;28;20057;-55
2023/06/20 00:43:33;;;;;;;3.78;2.97;;;25.20;46.20;;;;;;5002364;28;20065;-54
2023/06/20 00:46:00;;;;;;;4.00;2.70;;;25.20;46.40;;;;;;5002933;28;20417;-56
2023/06/20 00:48:28;;;;;;;3.35;2.47;;;25.20;46.50;;;;;;5001128;28;20061;-55
2023/06/20 00:50:55;;;;;;;6.00;2.85;;;25.20;46.60;;;;;;5000979;28;20066;-54
2023/06/20 00:53:23;;;;;;;3.75;3.00;;;25.20;46.70;;;;;;4999128;28;20489;-55
2023/06/20 00:55:52;;;;;;;3.67;2.78;;;25.10;46.70;;;;;;5000310;28;20057;-55
2023/06/20 00:58:19;;;;;;;3.67;2.70;;;25.10;46.80;;;;;;5000241;28;20060;-55
2023/06/20 01:00:46;;;;;;;4.03;3.13;;;25.10;46.80;;;;;;4999041;28;20497;-55
2023/06/20 01:03:15;;;;;;;4.55;2.75;;;25.00;46.90;;;;;;5010147;23;20057;-57
2023/06/20 01:05:48;;;;;;;4.75;3.22;;;25.10;47.10;;;;;;4992818;28;20058;-57
2023/06/20 01:08:22;;;;;;;4.22;3.15;;;25.00;47.20;;;;;;4992622;28;20061;-58
2023/06/20 01:11:03;;;;;;;8.32;3.17;;;25.00;47.40;;;;;;4998371;28;20523;-57
2023/06/20 01:13:49;;;;;;;3.95;2.90;;;25.00;47.80;;;;;;4996677;28;20482;-57
2023/06/20 01:16:24;;;;;;;3.35;2.78;;;25.00;47.90;;;;;;4992835;28;20050;-57
2023/06/20 01:19:00;;;;;;;4.75;3.10;;;24.90;48.00;;;;;;4997063;28;20062;-54
2023/06/20 01:21:32;;;;;;;4.45;3.15;;;24.90;48.20;;;;;;4992376;28;20054;-57
2023/06/20 01:24:08;;;;;;;3.63;3.03;;;24.80;48.20;;;;;;4993879;28;20481;-58
2023/06/20 01:26:45;;;;;;;5.32;2.70;;;24.80;49.00;;;;;;4993203;28;20054;-57
2023/06/20 01:29:18;;;;;;;4.95;3.10;;;24.80;48.60;;;;;;4994593;28;20065;-57
2023/06/20 01:31:51;;;;;;;4.80;3.20;;;24.70;48.70;;;;;;4995974;28;20061;-57
2023/06/20 01:34:22;;;;;;;5.90;2.90;;;24.70;48.90;;;;;;4997400;28;20058;-56
2023/06/20 01:36:54;;;;;;;4.38;3.17;;;24.70;49.00;;;;;;4992424;28;20072;-57
2023/06/20 01:39:26;;;;;;;4.25;3.28;;;24.60;49.20;;;;;;4989729;28;20057;-56
2023/06/20 01:41:57;;;;;;;4.45;3.10;;;24.60;49.30;;;;;;4997515;28;20053;-57
2023/06/20 01:44:27;;;;;;;6.72;3.15;;;24.60;49.40;;;;;;4993844;28;20054;-56
2023/06/20 01:46:56;;;;;;;5.57;3.75;;;24.50;49.40;;;;;;4996129;28;20485;-57
2023/06/20 01:49:26;;;;;;;3.60;2.92;;;24.50;49.50;;;;;;4996522;28;20054;-57
2023/06/20 01:51:56;;;;;;;4.72;3.17;;;24.40;49.60;;;;;;4991589;28;20635;-57
2023/06/20 01:54:27;;;;;;;5.00;3.15;;;24.40;49.70;;;;;;4993999;28;20054;-57
2023/06/20 01:56:57;;;;;;;3.88;3.05;;;24.40;49.90;;;;;;4992839;28;20051;-57
2023/06/20 01:59:25;;;;;;;3.35;3.05;;;24.40;49.90;;;;;;4995844;28;20053;-55
2023/06/20 02:01:54;;;;;;;4.57;3.22;;;24.30;49.90;;;;;;4991715;28;20054;-53
2023/06/20 02:04:23;;;;;;;4.15;3.00;;;24.30;50.10;;;;;;4995079;28;20514;-56
2023/06/20 02:06:51;;;;;;;3.75;3.03;;;24.30;50.20;;;;;;4990774;28;20498;-56
2023/06/20 02:09:19;;;;;;;4.72;3.05;;;24.20;50.30;;;;;;4994733;28;20336;-57
2023/06/20 02:11:49;;;;;;;5.85;3.60;;;24.20;50.40;;;;;;4996656;28;20060;-56
2023/06/20 02:14:16;;;;;;;3.55;3.10;;;24.10;50.50;;;;;;4994135;28;21017;-55
2023/06/20 02:16:47;;;;;;;4.88;3.45;;;24.10;50.50;;;;;;4992368;28;20058;-56
2023/06/20 02:19:14;;;;;;;4.80;3.35;;;24.10;50.60;;;;;;4996424;28;20421;-51
2023/06/20 02:21:45;;;;;;;7.90;3.15;;;24.10;50.70;;;;;;4995315;28;20053;-48
2023/06/20 02:24:16;;;;;;;5.40;3.40;;;24.10;50.80;;;;;;4993174;28;20061;-48
2023/06/20 02:26:45;;;;;;;3.38;2.95;;;24.00;50.90;;;;;;4995789;28;20057;-52
2023/06/20 02:29:16;;;;;;;4.93;3.80;;;24.00;51.00;;;;;;4987765;28;20391;-53
2023/06/20 02:31:46;;;;;;;5.10;3.45;;;24.00;51.10;;;;;;4986622;28;20052;-53
2023/06/20 02:34:18;;;;;;;4.70;3.45;;;24.00;51.10;;;;;;4989484;28;20054;-47
2023/06/20 02:36:47;;;;;;;4.15;3.30;;;23.90;51.10;;;;;;4989367;28;20050;-51
2023/06/20 02:39:15;;;;;;;6.07;3.40;;;23.90;51.20;;;;;;4991899;28;20065;-49
2023/06/20 02:41:42;;;;;;;3.85;3.30;;;23.80;51.20;;;;;;4998117;28;20513;-49
2023/06/20 02:44:10;;;;;;;5.25;3.53;;;23.80;51.30;;;;;;4996000;28;20053;-51
2023/06/20 02:46:49;;;;;;;4.47;3.65;;;23.80;51.40;;;;;;4992073;28;20430;-51
2023/06/20 02:49:24;;;;;;;6.07;3.58;;;23.80;51.60;;;;;;4996312;28;20129;-49
2023/06/20 02:52:01;;;;;;;4.40;3.38;;;23.80;51.70;;;;;;4995562;28;20057;-48
2023/06/20 02:54:36;;;;;;;4.13;3.20;;;23.70;51.70;;;;;;4998605;28;20050;-47
2023/06/20 02:57:07;;;;;;;3.78;3.08;;;23.70;51.80;;;;;;4998007;28;20068;-48
2023/06/20 02:59:37;;;;;;;4.38;3.42;;;23.70;51.90;;;;;;4993848;28;20058;-49
2023/06/20 03:02:08;;;;;;;4.35;3.45;;;23.70;51.90;;;;;;4990982;28;20053;-50
2023/06/20 03:04:35;;;;;;;4.55;3.22;;;23.70;52.10;;;;;;4994941;28;20421;-53
2023/06/20 03:07:03;;;;;;;5.20;3.95;;;23.70;52.10;;;;;;4993206;28;20497;-54
2023/06/20 03:09:33;;;;;;;4.75;3.75;;;23.60;52.20;;;;;;5005265;28;20053;-51
2023/06/20 03:12:01;;;;;;;6.03;4.18;;;23.60;52.20;;;;;;5010253;28;20053;-50
2023/06/20 03:14:28;;;;;;;5.82;3.55;;;23.60;52.30;;;;;;5009745;28;20414;-49
2023/06/20 03:16:55;;;;;;;5.47;3.78;;;23.60;52.30;;;;;;5010859;28;20057;-52
2023/06/20 03:19:24;;;;;;;5.53;3.58;;;23.60;52.40;;;;;;5008277;28;20061;-52
2023/06/20 03:21:51;;;;;;;6.72;4.18;;;23.60;52.50;;;;;;5008640;28;20054;-51
2023/06/20 03:24:18;;;;;;;4.22;3.53;;;23.60;52.60;;;;;;5011410;28;20072;-49
2023/06/20 03:26:45;;;;;;;4.80;3.75;;;23.50;52.60;;;;;;5015364;28;20049;-52
2023/06/20 03:29:13;;;;;;;5.10;3.80;;;23.50;52.70;;;;;;5014344;28;20500;-56
2023/06/20 03:31:40;;;;;;;6.00;3.95;;;23.50;52.70;;;;;;5013692;28;20061;-55
2023/06/20 03:34:07;;;;;;;5.93;4.28;;;23.50;52.80;;;;;;5015520;28;20061;-53
2023/06/20 03:36:38;;;;;;;5.45;3.90;;;23.50;52.90;;;;;;5009388;28;20512;-49
2023/06/20 03:39:05;;;;;;;6.45;3.65;;;23.50;53.00;;;;;;5010832;28;20049;-56
2023/06/20 03:41:32;;;;;;;7.55;4.47;;;23.50;53.00;;;;;;5011166;28;20057;-53
2023/06/20 03:43:59;;;;;;;4.00;3.60;;;23.50;53.10;;;;;;5013429;28;20540;-51
2023/06/20 03:46:26;;;;;;;5.13;3.78;;;23.50;53.60;;;;;;5009293;28;20793;-50
2023/06/20 03:48:54;;;;;;;6.25;3.90;;;23.40;53.10;;;;;;5016731;28;20057;-52
2023/06/20 03:51:21;;;;;;;7.72;3.95;;;23.40;53.20;;;;;;5015377;28;20424;-56
2023/06/20 03:53:49;;;;;;;5.60;4.10;;;23.40;53.30;;;;;;5018035;28;20049;-53
2023/06/20 03:56:17;;;;;;;4.78;4.03;;;23.40;53.40;;;;;;5016977;28;20058;-53
2023/06/20 03:58:44;;;;;;;5.88;4.15;;;23.40;53.40;;;;;;5014373;28;20060;-55
2023/06/20 04:01:11;;;;;;;6.53;4.05;;;23.40;53.60;;;;;;5006694;28;20053;-51
2023/06/20 04:03:38;;;;;;;6.28;3.90;;;23.30;53.60;;;;;;5009727;28;20065;-54
2023/06/20 04:06:06;;;;;;;4.82;3.90;;;23.30;53.60;;;;;;5017341;28;20080;-52
2023/06/20 04:08:34;;;;;;;6.05;4.05;;;23.30;53.70;;;;;;5010558;28;20057;-51
2023/06/20 04:11:03;;;;;;;7.22;4.00;;;23.30;53.80;;;;;;5014650;28;20058;-51
2023/06/20 04:13:30;;;;;;;7.07;4.35;;;23.30;53.90;;;;;;5011768;28;20485;-55
2023/06/20 04:15:57;;;;;;;8.55;4.55;;;23.20;53.90;;;;;;5011954;28;20052;-50
2023/06/20 04:18:24;;;;;;;6.40;4.53;;;23.20;53.90;;;;;;5008123;28;20065;-52
2023/06/20 04:20:51;;;;;;;11.02;4.40;;;23.20;54.00;;;;;;5009782;28;20062;-51
2023/06/20 04:23:19;;;;;;;6.07;4.40;;;23.20;54.10;;;;;;5013048;28;20415;-51
2023/06/20 04:25:46;;;;;;;7.55;4.38;;;23.20;54.10;;;;;;5013731;28;20050;-51
2023/06/20 04:28:17;;;;;;;5.72;4.20;;;23.20;54.10;;;;;;5014795;28;20058;-50
2023/06/20 04:30:44;;;;;;;5.57;3.85;;;23.20;54.30;;;;;;5017183;28;20444;-50
2023/06/20 04:33:11;;;;;;;5.78;4.22;;;23.20;54.30;;;;;;5019032;28;20068;-49
2023/06/20 04:35:40;;;;;;;5.43;3.95;;;23.20;54.40;;;;;;5017931;28;20394;-52
2023/06/20 04:38:08;;;;;;;6.15;4.32;;;23.20;54.40;;;;;;5017019;28;20477;-52
2023/06/20 04:40:35;;;;;;;7.25;4.13;;;23.10;54.90;;;;;;5017427;28;20423;-49
2023/06/20 04:43:03;;;;;;;6.35;4.00;;;23.10;54.50;;;;;;5014217;28;20053;-51
2023/06/20 04:45:32;;;;;;;7.13;4.10;;;23.10;54.50;;;;;;5018547;28;20057;-54
2023/06/20 04:47:59;;;;;;;8.93;4.07;;;23.10;54.60;;;;;;5016762;28;20497;-53
2023/06/20 04:50:27;;;;;;;4.47;3.75;;;23.10;54.60;;;;;;5012536;28;20060;-51
2023/06/20 04:52:54;;;;;;;5.78;3.75;;;23.10;54.70;;;;;;5008381;28;20049;-50
2023/06/20 04:55:22;;;;;;;7.72;4.65;;;23.10;54.70;;;;;;5012366;28;20056;-50
2023/06/20 04:57:49;;;;;;;6.53;4.15;;;23.10;54.80;;;;;;5017092;28;20489;-52
2023/06/20 05:00:17;;;;;;;5.00;4.05;;;23.10;54.90;;;;;;5020177;28;20065;-48
2023/06/20 05:02:46;;;;;;;4.50;3.75;;;23.00;54.90;;;;;;5010502;28;20709;-51
2023/06/20 05:05:13;;;;;;;5.10;3.70;;;23.00;55.00;;;;;;5010418;28;20054;-50
2023/06/20 05:07:41;;;;;;;5.70;4.35;;;23.00;55.00;;;;;;5008839;28;20076;-53
2023/06/20 05:10:10;;;;;;;4.47;3.80;;;23.10;55.10;;;;;;5014296;28;20061;-53
2023/06/20 05:12:37;;;;;;;6.22;4.43;;;23.10;55.10;;;;;;5009249;28;20064;-52
2023/06/20 05:15:05;;;;;;;6.85;3.85;;;23.10;55.20;;;;;;5014236;28;20052;-55
2023/06/20 05:17:32;;;;;;;3.78;3.40;;;23.10;55.20;;;;;;5012969;28;20064;-46
2023/06/20 05:20:05;;;;;;;6.60;4.05;;;23.00;55.20;;;;;;5010856;28;20052;-53
2023/06/20 05:22:33;;;;;;;7.07;4.30;;;23.00;55.40;;;;;;5014993;28;20421;-55
2023/06/20 05:25:00;;;;;;;5.90;4.03;;;23.10;55.40;;;;;;5016016;28;20045;-51
2023/06/20 05:27:28;;;;;;;5.80;4.28;;;23.00;55.40;;;;;;5017160;28;20057;-53
2023/06/20 05:29:55;;;;;;;6.10;4.25;;;23.00;55.50;;;;;;5018283;28;20049;-55
2023/06/20 05:32:22;;;;;;;8.13;4.50;;;23.00;55.50;;;;;;5011860;28;20453;-50
2023/06/20 05:34:49;;;;;;;5.65;3.78;;;23.00;55.50;;;;;;5019044;28;20053;-52
2023/06/20 05:37:18;;;;;;;8.52;4.20;;;23.00;55.60;;;;;;5010789;28;20057;-53
2023/06/20 05:39:45;;;;;;;6.70;4.40;;;23.00;55.70;;;;;;5014233;28;20493;-51
2023/06/20 05:42:13;;;;;;;5.68;4.30;;;23.00;55.70;;;;;;5013819;28;20089;-54
2023/06/20 05:44:40;;;;;;;9.95;4.15;;;23.00;55.80;;;;;;5005729;28;20053;-55
2023/06/20 05:47:08;;;;;;;6.60;4.07;;;23.00;55.90;;;;;;5013165;28;20042;-57
2023/06/20 05:49:36;;;;;;;7.53;4.13;;;23.00;55.90;;;;;;5010185;28;20509;-55
2023/06/20 05:52:04;;;;;;;5.50;4.18;;;23.00;56.00;;;;;;5009816;28;20077;-51
2023/06/20 05:54:33;;;;;;;5.70;4.07;;;23.00;56.00;;;;;;5013161;28;20046;-53
2023/06/20 05:57:00;;;;;;;8.55;5.25;;;23.00;56.20;;;;;;5010371;28;20076;-55
2023/06/20 05:59:27;;;;;;;6.10;4.30;;;23.00;56.40;;;;;;5014127;28;20061;-52
2023/06/20 06:01:55;;;;;;;8.00;4.50;;;23.00;56.40;;;;;;5006897;28;20927;-53
2023/06/20 06:04:22;;;;;;;5.15;4.07;;;23.00;56.50;;;;;;5008188;28;20068;-51
2023/06/20 06:06:49;;;;;;;8.07;4.90;;;23.00;56.40;;;;;;5013789;28;20053;-51
2023/06/20 06:09:16;;;;;;;6.63;5.07;;;23.10;56.60;;;;;;5008159;28;20049;-50
2023/06/20 06:11:46;;;;;;;6.47;4.70;;;23.10;56.80;;;;;;5010561;28;20058;-53
2023/06/20 06:14:13;;;;;;;10.05;4.60;;;23.10;56.80;;;;;;5007385;28;20523;-53
2023/06/20 06:16:40;;;;;;;5.60;4.47;;;23.10;56.80;;;;;;5003284;28;20065;-51
2023/06/20 06:19:07;;;;;;;8.02;5.07;;;23.10;56.80;;;;;;5009202;28;20069;-55
2023/06/20 06:21:35;;;;;;;7.32;4.32;;;23.20;57.00;;;;;;5011058;28;20063;-50
2023/06/20 06:24:02;;;;;;;6.97;4.43;;;23.20;57.10;;;;;;5012625;28;20497;-50
2023/06/20 06:26:29;;;;;;;6.15;4.25;;;23.20;57.20;;;;;;5011965;28;20056;-53
2023/06/20 06:28:59;;;;;;;4.70;4.03;;;23.20;57.30;;;;;;5010287;28;20619;-54
2023/06/20 06:31:30;;;;;;;8.68;5.05;;;23.20;57.50;;;;;;5011986;28;20056;-48
2023/06/20 06:33:59;;;;;;;7.50;5.10;;;23.30;57.70;;;;;;5012040;28;20065;-55
2023/06/20 06:36:29;;;;;;;20.90;12.07;;;23.30;57.80;;;;;;5014621;28;20045;-52
2023/06/20 06:38:57;;;;;;;11.88;7.13;;;23.40;58.10;;;;;;5011090;28;20057;-53
2023/06/20 06:41:24;;;;;;;6.65;5.28;;;23.40;58.00;;;;;;5011455;28;20057;-54
2023/06/20 06:43:52;;;;;;;6.47;4.85;;;23.50;58.00;;;;;;5011428;28;20062;-52
2023/06/20 06:46:20;;;;;;;6.32;4.57;;;23.50;57.90;;;;;;5012045;28;20072;-51
2023/06/20 06:48:49;;;;;;;6.85;4.88;;;23.50;57.90;;;;;;5014902;28;20508;-56
2023/06/20 06:51:16;;;;;;;6.30;4.53;;;23.60;57.80;;;;;;5012846;28;20053;-54
2023/06/20 06:53:43;;;;;;;7.53;4.50;;;23.60;57.90;;;;;;5010041;28;20708;-53
2023/06/20 06:56:11;;;;;;;6.65;4.30;;;23.70;58.00;;;;;;5008863;28;20390;-55
2023/06/20 06:58:38;;;;;;;7.28;5.15;;;23.70;57.90;;;;;;5005027;28;20053;-50
2023/06/20 07:01:05;;;;;;;7.78;4.85;;;23.80;58.00;;;;;;5007623;28;20501;-56
2023/06/20 07:03:34;;;;;;;5.75;4.35;;;23.80;57.90;;;;;;5009289;28;20057;-56
2023/06/20 07:06:02;;;;;;;5.32;4.35;;;23.80;57.80;;;;;;5013118;28;20057;-57
2023/06/20 07:08:29;;;;;;;5.78;4.30;;;23.90;57.80;;;;;;5004301;28;20049;-54
2023/06/20 07:10:56;;;;;;;5.78;4.47;;;23.90;57.70;;;;;;5007550;28;20497;-57
2023/06/20 07:13:24;;;;;;;4.68;3.97;;;24.00;57.70;;;;;;5007931;28;20057;-57
2023/06/20 07:15:52;;;;;;;4.97;4.05;;;24.00;57.70;;;;;;5016774;28;20061;-58
2023/06/20 07:18:19;;;;;;;5.15;3.70;;;24.10;57.70;;;;;;5017011;28;20045;-57
2023/06/20 07:20:47;;;;;;;8.18;3.97;;;24.10;57.60;;;;;;5014396;28;20069;-54
2023/06/20 07:23:15;;;;;;;5.85;3.60;;;24.10;57.70;;;;;;5014178;28;20053;-55
2023/06/20 07:25:42;;;;;;;6.00;3.75;;;24.20;57.60;;;;;;5018272;28;20053;-58
2023/06/20 07:28:10;;;;;;;4.65;3.50;;;24.20;57.60;;;;;;5012539;28;20700;-58
2023/06/20 07:30:37;;;;;;;5.32;3.78;;;24.30;57.80;;;;;;5020561;28;20049;-59
2023/06/20 07:33:05;;;;;;;4.68;3.90;;;24.30;57.70;;;;;;5017600;28;20049;-60
2023/06/20 07:35:33;;;;;;;4.10;3.55;;;24.40;57.60;;;;;;5020420;28;20425;-57
2023/06/20 07:38:02;;;;;;;5.68;3.95;;;24.40;57.60;;;;;;5016839;28;20068;-58
2023/06/20 07:40:29;;;;;;;4.15;3.65;;;24.40;57.60;;;;;;5018432;28;20054;-57
2023/06/20 07:42:56;;;;;;;4.20;3.70;;;24.50;57.70;;;;;;5020244;28;20053;-58
2023/06/20 07:45:23;;;;;;;4.35;3.60;;;24.50;57.70;;;;;;5020833;28;20764;-57
2023/06/20 07:47:51;;;;;;;4.30;3.90;;;24.60;57.70;;;;;;5019081;28;20053;-58
2023/06/20 07:50:18;;;;;;;4.20;3.80;;;24.60;57.60;;;;;;5019673;28;20061;-57
2023/06/20 07:52:45;;;;;;;6.20;4.20;;;24.60;57.60;;;;;;5016746;28;20062;-57
2023/06/20 07:55:14;;;;;;;6.22;4.00;;;24.70;57.60;;;;;;5018657;28;20526;-56
2023/06/20 07:57:41;;;;;;;5.82;3.60;;;24.70;57.60;;;;;;5020204;28;20417;-58
2023/06/20 08:00:11;;;;;;;4.22;3.83;;;24.80;57.50;;;;;;5023968;28;20057;-58
2023/06/20 08:02:38;;;;;;;5.53;4.20;;;24.80;57.60;;;;;;5023655;28;20053;-58
2023/06/20 08:05:08;;;;;;;4.20;3.80;;;24.90;57.60;;;;;;5023176;28;20049;-58
2023/06/20 08:07:36;;;;;;;5.70;3.90;;;24.90;57.60;;;;;;5022990;28;20413;-58
2023/06/20 08:10:04;;;;;;;5.68;3.78;;;25.00;57.60;;;;;;5022667;28;20061;-58
2023/06/20 08:12:32;;;;;;;4.20;3.60;;;25.00;57.40;;;;;;5023720;28;20049;-57
2023/06/20 08:14:59;;;;;;;5.22;3.78;;;25.10;57.30;;;;;;5022245;28;20053;-59
2023/06/20 08:17:27;;;;;;;4.35;3.80;;;25.10;57.30;;;;;;5018417;28;20045;-58
2023/06/20 08:19:54;;;;;;;4.82;4.22;;;25.20;57.40;;;;;;5019545;28;20080;-59
2023/06/20 08:22:21;;;;;;;4.72;4.25;;;25.20;57.00;;;;;;5017719;28;20108;-53
2023/06/20 08:24:49;;;;;;;4.80;4.30;;;25.30;57.00;;;;;;5024460;28;20386;-57
2023/06/20 08:27:16;;;;;;;4.70;4.20;;;25.40;56.90;;;;;;5024163;28;20072;-57
2023/06/20 08:29:44;;;;;;;5.30;4.50;;;25.40;57.00;;;;;;5023527;28;20057;-56
2023/06/20 08:32:12;;;;;;;6.22;4.30;;;25.50;57.00;;;;;;5015715;28;20049;-59
2023/06/20 08:34:39;;;;;;;14.13;4.80;;;25.50;56.80;;;;;;5023807;28;20389;-58
2023/06/20 08:37:08;;;;;;;5.40;4.35;;;25.60;56.90;;;;;;5016570;28;20053;-58
2023/06/20 08:39:35;;;;;;;6.55;4.50;;;25.60;56.60;;;;;;5023511;28;20072;-57
2023/06/20 08:42:04;;;;;;;4.75;4.25;;;25.70;56.40;;;;;;5022211;28;20064;-57
2023/06/20 08:44:34;;;;;;;5.05;4.45;;;25.70;56.20;;;;;;5022426;28;20057;-58
2023/06/20 08:47:02;;;;;;;6.55;4.60;;;25.80;55.90;;;;;;5021229;28;20507;-57
2023/06/20 08:49:30;;;;;;;5.95;4.63;;;25.80;55.60;;;;;;5014526;28;20062;-62
2023/06/20 08:52:00;;;;;;;5.32;4.32;;;25.80;55.40;;;;;;5020185;28;20424;-56
2023/06/20 08:54:30;;;;;;;9.15;4.20;;;25.80;55.20;;;;;;5021007;28;20416;-57
2023/06/20 08:56:57;;;;;;;11.48;5.07;;;25.90;55.30;;;;;;5019687;28;20060;-58
2023/06/20 08:59:24;;;;;;;5.80;4.05;;;25.90;55.30;;;;;;5009683;28;20057;-57
2023/06/20 09:01:52;;;;;;;4.20;3.80;;;26.00;55.20;;;;;;5019003;28;20057;-58
2023/06/20 09:04:20;;;;;;;4.85;3.83;;;26.00;55.00;;;;;;5012907;28;20505;-57
2023/06/20 09:06:50;;;;;;;4.25;3.60;;;26.00;54.80;;;;;;5019298;28;20520;-57
2023/06/20 09:09:18;;;;;;;4.47;4.07;;;26.00;54.60;;;;;;5017975;28;20061;-53
2023/06/20 09:11:52;;;;;;;6.43;3.80;;;26.10;54.60;;;;;;5019435;28;20053;-57
2023/06/20 09:14:19;;;;;;;4.45;4.00;;;26.10;55.00;;;;;;5021231;28;20050;-58
2023/06/20 09:16:48;;;;;;;4.93;3.95;;;26.10;54.40;;;;;;5019007;28;20061;-51
2023/06/20 09:19:15;;;;;;;4.10;3.70;;;26.20;54.50;;;;;;5017526;28;20060;-58
2023/06/20 09:21:44;;;;;;;4.38;3.83;;;26.20;54.40;;;;;;5021223;28;20426;-57
2023/06/20 09:24:11;;;;;;;4.47;4.00;;;26.20;54.50;;;;;;5019757;28;20049;-60
2023/06/20 09:26:40;;;;;;;4.38;3.88;;;26.30;54.40;;;;;;5016172;28;20056;-59
2023/06/20 09:29:09;;;;;;;4.60;3.97;;;26.30;54.40;;;;;;5018743;28;20060;-61
2023/06/20 09:31:44;;;;;;;4.25;3.85;;;26.30;54.20;;;;;;5021868;28;20054;-60
2023/06/20 09:34:12;;;;;;;4.35;3.85;;;26.40;54.10;;;;;;5016556;28;20054;-60
2023/06/20 09:36:43;;;;;;;5.30;4.07;;;26.40;53.90;;;;;;5016782;28;20401;-60
2023/06/20 09:39:15;;;;;;;6.97;4.50;;;26.40;54.00;;;;;;5014283;28;20493;-66
2023/06/20 09:41:45;;;;;;;5.78;4.88;;;26.50;53.90;;;;;;5019621;28;20508;-62
2023/06/20 09:44:13;;;;;;;6.65;4.60;;;26.50;54.10;;;;;;5016191;28;20120;-63
2023/06/20 09:46:41;;;;;;;5.45;4.95;;;26.50;54.00;;;;;;5021917;28;20054;-58
2023/06/20 09:49:08;;;;;;;7.75;4.32;;;26.60;54.00;;;;;;5020310;28;20058;-58
2023/06/20 09:51:42;;;;;;;5.85;4.93;;;26.60;54.00;;;;;;5015946;28;20057;-58
2023/06/20 09:54:15;;;;;;;6.20;4.55;;;26.70;54.00;;;;;;5017347;28;20053;-59
2023/06/20 09:56:47;;;;;;;5.03;4.53;;;26.70;53.90;;;;;;5020154;28;20065;-64
2023/06/20 09:59:16;;;;;;;11.05;4.68;;;26.80;53.90;;;;;;5021713;28;20053;-60
2023/06/20 10:01:43;;;;;;;7.78;4.80;;;26.80;54.20;;;;;;5016886;28;20061;-61
2023/06/20 10:04:12;;;;;;;4.72;4.13;;;26.80;53.70;;;;;;5022282;28;20072;-61
2023/06/20 10:06:40;;;;;;;5.22;4.57;;;26.90;53.70;;;;;;5021315;28;20045;-62
2023/06/20 10:09:08;;;;;;;7.25;5.07;;;26.90;53.60;;;;;;5020276;28;20448;-58
2023/06/20 10:11:38;;;;;;;5.25;4.60;;;27.00;53.50;;;;;;5021671;28;20056;-59
2023/06/20 10:14:05;;;;;;;5.93;4.32;;;27.00;53.20;;;;;;5010090;28;20057;-60
2023/06/20 10:16:34;;;;;;;4.90;4.10;;;27.10;53.00;;;;;;5015717;28;20049;-56
2023/06/20 10:19:17;;;;;;;9.10;4.45;;;27.10;52.70;;;;;;5022626;28;20057;-58
2023/06/20 10:21:55;;;;;;;5.53;4.32;;;27.10;52.20;;;;;;5019962;28;20061;-60
2023/06/20 10:24:24;;;;;;;5.13;3.97;;;27.20;52.30;;;;;;5017912;28;20488;-58
2023/06/20 10:26:55;;;;;;;6.85;4.38;;;27.20;52.40;;;;;;5016785;28;20060;-58
2023/06/20 10:29:22;;;;;;;4.72;4.13;;;27.20;52.30;;;;;;5020310;28;20057;-58
2023/06/20 10:31:57;;;;;;;7.00;4.40;;;27.30;52.20;;;;;;5015565;28;20060;-58
2023/06/20 10:34:34;;;;;;;5.13;4.00;;;27.30;52.00;;;;;;5020674;28;20054;-57
2023/06/20 10:37:34;;;;;;;6.28;3.97;;;27.40;52.10;;;;;;5018011;28;20049;-57
2023/06/20 10:40:01;;;;;;;4.65;4.10;;;27.40;51.90;;;;;;5021258;28;20053;-58
2023/06/20 10:42:38;;;;;;;5.97;4.50;;;27.50;51.70;;;;;;5016482;28;20524;-60
2023/06/20 10:45:17;;;;;;;4.35;3.95;;;27.50;51.40;;;;;;5020351;28;20500;-57
2023/06/20 10:47:45;;;;;;;6.07;4.25;;;27.60;51.30;;;;;;5009017;28;20045;-57
2023/06/20 10:50:12;;;;;;;5.65;4.10;;;27.60;51.20;;;;;;5018771;28;20049;-57
2023/06/20 10:52:40;;;;;;;5.57;4.00;;;27.60;51.00;;;;;;5017593;28;20065;-58
2023/06/20 10:55:09;;;;;;;4.32;3.92;;;27.70;50.80;;;;;;5020980;28;20104;-58
2023/06/20 10:57:44;;;;;;;7.18;4.25;;;27.70;50.80;;;;;;5019088;28;20516;-57
2023/06/20 11:00:14;;;;;;;4.85;4.07;;;27.80;50.70;;;;;;5020936;28;20053;-58
2023/06/20 11:02:41;;;;;;;4.07;3.67;;;27.80;50.70;;;;;;5019755;28;20072;-57
2023/06/20 11:05:10;;;;;;;4.30;3.67;;;27.90;50.70;;;;;;5017495;28;20057;-57
2023/06/20 11:07:51;;;;;;;4.28;3.88;;;27.90;50.80;;;;;;5016333;28;20055;-57
2023/06/20 11:10:20;;;;;;;5.68;4.00;;;28.10;50.60;;;;;;5020253;28;20064;-61
2023/06/20 11:12:49;;;;;;;5.25;4.28;;;28.10;50.80;;;;;;5014369;28;20053;-57
2023/06/20 11:15:21;;;;;;;5.88;4.22;;;28.10;50.50;;;;;;5015765;28;20053;-58
2023/06/20 11:17:49;;;;;;;6.85;3.80;;;28.20;50.40;;;;;;5013459;28;20511;-59
2023/06/20 11:20:17;;;;;;;4.35;3.92;;;28.20;50.20;;;;;;5017397;28;21674;-60
2023/06/20 11:22:46;;;;;;;5.57;4.32;;;28.20;50.20;;;;;;5008898;28;20056;-60
2023/06/20 11:25:22;;;;;;;5.40;4.13;;;28.30;50.50;;;;;;5011992;28;20050;-56
2023/06/20 11:27:50;;;;;;;5.10;4.57;;;28.30;50.10;;;;;;5012009;28;20045;-59
2023/06/20 11:30:24;;;;;;;5.80;4.20;;;28.30;50.00;;;;;;5007298;28;20058;-61
2023/06/20 11:33:03;;;;;;;7.88;4.40;;;28.40;50.00;;;;;;5000991;28;20066;-67
2023/06/20 11:35:40;;;;;;;9.48;4.25;;;28.30;49.70;;;;;;5010880;28;20058;-62
2023/06/20 11:38:09;;;;;;;5.10;4.20;;;28.40;49.50;;;;;;5006696;28;20054;-55
2023/06/20 11:40:37;;;;;;;6.07;4.47;;;28.40;49.60;;;;;;5010054;28;20065;-56
2023/06/20 11:43:06;;;;;;;5.82;4.30;;;28.40;49.40;;;;;;5010045;28;20065;-60
2023/06/20 11:45:34;;;;;;;4.50;4.10;;;28.50;49.50;;;;;;5012211;28;20061;-60
2023/06/20 11:48:11;;;;;;;5.72;4.07;;;28.50;49.50;;;;;;5012850;28;20497;-59
2023/06/20 11:50:38;;;;;;;5.88;4.53;;;28.50;48.80;;;;;;5007865;28;20061;-55
2023/06/20 11:53:06;;;;;;;4.80;4.20;;;28.50;48.90;;;;;;5012116;28;20508;-60
2023/06/20 11:55:46;;;;;;;7.15;3.83;;;28.60;48.60;;;;;;5012353;28;20064;-58
2023/06/20 11:58:15;;;;;;;4.38;3.97;;;28.60;48.50;;;;;;5010421;28;20060;-58
2023/06/20 12:00:45;;;;;;;4.97;3.90;;;28.60;48.60;;;;;;5006924;28;20049;-55
2023/06/20 12:03:15;;;;;;;4.70;3.90;;;28.60;48.60;;;;;;5009181;28;20049;-53
2023/06/20 12:05:43;;;;;;;4.03;3.63;;;28.70;48.70;;;;;;5011172;28;20054;-51
2023/06/20 12:08:10;;;;;;;4.65;3.72;;;28.70;48.50;;;;;;5009925;28;20045;-56
2023/06/20 12:10:41;;;;;;;3.50;3.20;;;28.70;48.40;;;;;;5012324;28;20065;-48
2023/06/20 12:13:08;;;;;;;6.10;3.38;;;28.80;48.20;;;;;;5004749;28;20054;-53
2023/06/20 12:15:36;;;;;;;4.45;3.50;;;28.80;48.00;;;;;;5011112;28;20062;-50
2023/06/20 12:18:04;;;;;;;4.00;3.42;;;28.90;47.40;;;;;;5002304;28;20494;-52
2023/06/20 12:20:31;;;;;;;4.18;3.20;;;29.00;48.20;;;;;;5009954;28;20057;-50
2023/06/20 12:22:59;;;;;;;5.13;3.15;;;29.00;47.90;;;;;;5014895;28;20058;-50
2023/06/20 12:25:26;;;;;;;7.32;3.95;;;29.00;47.30;;;;;;5010261;28;20056;-49
2023/06/20 12:27:53;;;;;;;3.92;3.53;;;29.10;47.10;;;;;;5012422;28;20529;-54
2023/06/20 12:30:20;;;;;;;3.05;2.75;;;29.20;47.10;;;;;;5001700;28;20057;-52
2023/06/20 12:32:50;;;;;;;3.78;3.30;;;29.20;46.90;;;;;;5010813;28;20076;-49
2023/06/20 12:35:18;;;;;;;10.88;3.60;;;29.20;46.60;;;;;;5009105;28;20397;-54
2023/06/20 12:37:45;;;;;;;3.35;2.90;;;29.30;46.50;;;;;;5005013;28;20058;-50
2023/06/20 12:40:13;;;;;;;4.25;3.47;;;29.30;46.30;;;;;;5009574;28;20053;-48
2023/06/20 12:42:40;;;;;;;4.35;3.30;;;29.40;46.10;;;;;;5007719;28;20520;-50
2023/06/20 12:45:10;;;;;;;5.70;3.50;;;29.40;45.70;;;;;;5010196;28;20049;-56
2023/06/20 12:47:37;;;;;;;3.97;3.03;;;29.40;45.70;;;;;;5018160;28;20054;-50
2023/06/20 12:50:09;;;;;;;4.38;3.33;;;29.50;45.50;;;;;;5013214;28;20066;-46
2023/06/20 12:52:36;;;;;;;5.90;3.10;;;29.60;45.30;;;;;;5007886;28;20065;-51
2023/06/20 12:55:05;;;;;;;6.80;3.08;;;29.70;45.40;;;;;;5016647;28;20062;-53